createdAt,value
2018-08-06T00:00:41.656Z,54.87
2018-08-06T00:03:12.165Z,54.81
2018-08-06T00:05:42.505Z,55.30
2018-08-06T00:08:12.971Z,55.06
2018-08-06T00:10:43.135Z,55.41
2018-08-06T00:13:13.403Z,56.24
2018-08-06T00:15:43.577Z,56.43
2018-08-06T00:18:13.845Z,55.48
2018-08-06T00:20:44.044Z,56.28
2018-08-06T00:23:14.288Z,56.58
2018-08-06T00:25:44.409Z,56.52
2018-08-06T00:28:14.552Z,56.72
2018-08-06T00:30:44.643Z,56.46
2018-08-06T00:33:14.772Z,56.90
2018-08-06T00:35:44.955Z,57.08
2018-08-06T00:38:15.185Z,57.37
2018-08-06T00:40:45.333Z,57.45
2018-08-06T00:43:15.553Z,56.96
2018-08-06T00:45:45.645Z,57.78
2018-08-06T00:48:15.866Z,57.73
2018-08-06T00:50:45.973Z,57.77
2018-08-06T00:53:16.131Z,58.30
2018-08-06T00:55:46.216Z,58.40
2018-08-06T00:58:16.481Z,58.17
2018-08-06T01:00:46.595Z,58.45
2018-08-06T01:03:16.737Z,58.99
2018-08-06T01:05:46.897Z,58.99
2018-08-06T01:08:17.113Z,58.96
2018-08-06T01:10:47.232Z,59.50
2018-08-06T01:13:17.449Z,60.20
2018-08-06T01:15:47.708Z,60.50
2018-08-06T01:18:17.880Z,60.93
2018-08-06T01:20:48.053Z,61.21
2018-08-06T01:23:18.174Z,61.74
2018-08-06T01:25:48.433Z,61.84
2018-08-06T01:28:18.637Z,61.81
2018-08-06T01:30:48.821Z,61.49
2018-08-06T01:33:19.146Z,61.55
2018-08-06T01:35:49.381Z,61.33
2018-08-06T01:38:19.602Z,61.57
2018-08-06T01:40:49.696Z,61.75
2018-08-06T01:43:19.869Z,61.40
2018-08-06T01:45:50.045Z,62.07
2018-08-06T01:48:20.206Z,62.94
2018-08-06T01:50:50.330Z,63.40
2018-08-06T01:53:20.539Z,64.02
2018-08-06T01:55:50.939Z,64.31
2018-08-06T01:58:21.191Z,64.65
2018-08-06T02:00:51.423Z,64.81
2018-08-06T02:03:21.639Z,64.56
2018-08-06T02:05:51.755Z,64.57
2018-08-06T02:08:21.960Z,65.09
2018-08-06T02:10:52.157Z,64.89
2018-08-06T02:13:22.319Z,65.36
2018-08-06T02:15:52.571Z,65.55
2018-08-06T02:18:22.785Z,65.12
2018-08-06T02:20:52.988Z,65.17
2018-08-06T02:23:23.194Z,65.45
2018-08-06T02:25:53.520Z,65.05
2018-08-06T02:28:23.682Z,65.19
2018-08-06T02:30:53.898Z,65.47
2018-08-06T02:33:24.135Z,66.04
2018-08-06T02:35:54.328Z,65.83
2018-08-06T02:38:24.552Z,65.89
2018-08-06T02:40:54.782Z,67.02
2018-08-06T02:43:25.136Z,66.86
2018-08-06T02:45:55.404Z,67.67
2018-08-06T02:48:25.689Z,68.22
2018-08-06T02:50:55.867Z,68.06
2018-08-06T02:53:26.007Z,68.22
2018-08-06T02:55:56.228Z,67.81
2018-08-06T02:58:26.544Z,67.90
2018-08-06T03:00:56.631Z,67.89
2018-08-06T03:03:26.824Z,68.38
2018-08-06T03:05:57.016Z,68.12
2018-08-06T03:08:27.247Z,68.92
2018-08-06T03:10:57.350Z,68.93
2018-08-06T03:13:27.518Z,69.12
2018-08-06T03:15:57.927Z,68.76
2018-08-06T03:18:28.139Z,68.67
2018-08-06T03:20:58.330Z,69.15
2018-08-06T03:23:28.495Z,69.17
2018-08-06T03:25:58.846Z,69.11
2018-08-06T03:28:29.032Z,69.44
2018-08-06T03:30:59.195Z,69.92
2018-08-06T03:33:29.416Z,70.49
2018-08-06T03:35:59.584Z,70.31
2018-08-06T03:38:29.824Z,70.69
2018-08-06T03:41:00.011Z,70.40
2018-08-06T03:43:30.233Z,70.84
2018-08-06T03:46:00.462Z,70.83
2018-08-06T03:48:30.715Z,71.27
2018-08-06T03:51:00.854Z,72.06
2018-08-06T03:53:31.413Z,71.78
2018-08-06T03:56:01.570Z,71.80
2018-08-06T03:58:31.892Z,72.24
2018-08-06T04:01:01.960Z,72.40
2018-08-06T04:03:32.123Z,72.32
2018-08-06T04:06:02.239Z,72.25
2018-08-06T04:08:32.427Z,72.12
2018-08-06T04:11:02.623Z,72.71
2018-08-06T04:13:32.825Z,72.45
2018-08-06T04:16:03.084Z,72.46
2018-08-06T04:18:33.479Z,73.29
2018-08-06T04:21:03.681Z,73.76
2018-08-06T04:23:33.889Z,73.94
2018-08-06T04:26:04.045Z,73.81
2018-08-06T04:28:34.188Z,72.53
2018-08-06T04:31:04.351Z,71.90
2018-08-06T04:33:34.602Z,72.91
2018-08-06T04:36:04.743Z,73.48
2018-08-06T04:38:34.981Z,73.10
2018-08-06T04:41:05.072Z,72.59
2018-08-06T04:43:35.243Z,71.76
2018-08-06T04:46:05.676Z,70.94
2018-08-06T04:48:35.367Z,70.12
2018-08-06T04:51:05.510Z,69.49
2018-08-06T04:53:35.792Z,69.70
2018-08-06T04:56:06.037Z,69.26
2018-08-06T04:58:36.203Z,68.70
2018-08-06T05:01:06.441Z,68.92
2018-08-06T05:03:36.692Z,68.36
2018-08-06T05:06:06.964Z,68.38
2018-08-06T05:08:37.145Z,67.68
2018-08-06T05:11:07.471Z,67.64
2018-08-06T05:13:37.715Z,67.81
2018-08-06T05:16:08.036Z,67.41
2018-08-06T05:18:38.212Z,66.45
2018-08-06T05:21:08.412Z,66.28
2018-08-06T05:23:55.185Z,65.96
2018-08-06T05:26:26.439Z,64.98
2018-08-06T05:28:56.690Z,64.83
2018-08-06T05:31:28.117Z,64.96
2018-08-06T05:33:59.326Z,65.02
2018-08-06T05:36:29.591Z,64.55
2018-08-06T05:38:59.774Z,63.47
2018-08-06T05:41:29.945Z,62.95
2018-08-06T05:44:00.159Z,62.14
2018-08-06T05:46:30.300Z,61.15
2018-08-06T05:49:00.536Z,61.33
2018-08-06T05:51:30.761Z,60.79
2018-08-06T05:54:01.051Z,59.89
2018-08-06T05:56:31.255Z,56.23
2018-08-06T05:59:01.436Z,50.17
2018-08-06T06:01:31.689Z,46.24
2018-08-06T06:04:01.920Z,43.22
2018-08-06T06:06:32.054Z,40.05
2018-08-06T06:09:02.294Z,39.25
2018-08-06T06:11:32.422Z,38.06
2018-08-06T06:14:02.576Z,35.85
2018-08-06T06:16:32.781Z,36.13
2018-08-06T06:19:02.960Z,34.16
2018-08-06T06:21:33.253Z,33.95
2018-08-06T06:24:03.560Z,33.01
2018-08-06T06:26:33.731Z,32.73
2018-08-06T06:29:04.045Z,32.21
2018-08-06T06:31:34.226Z,30.85
2018-08-06T06:34:04.641Z,29.38
2018-08-06T06:36:34.773Z,29.71
2018-08-06T06:39:07.560Z,28.71
2018-08-06T06:41:38.492Z,27.90
2018-08-06T06:44:09.257Z,27.90
2018-08-06T06:46:40.184Z,28.46
2018-08-06T06:49:10.984Z,28.47
2018-08-06T06:51:41.425Z,29.30
2018-08-06T06:54:14.485Z,28.87
2018-08-06T06:56:45.188Z,27.77
2018-08-06T06:59:15.367Z,28.57
2018-08-06T07:01:45.495Z,29.42
2018-08-06T07:04:15.764Z,28.44
2018-08-06T07:06:45.914Z,27.67
2018-08-06T07:09:16.009Z,27.08
2018-08-06T07:11:46.129Z,26.10
2018-08-06T07:14:16.503Z,26.18
2018-08-06T07:16:46.668Z,26.84
2018-08-06T07:19:16.966Z,26.92
2018-08-06T07:21:47.201Z,26.74
2018-08-06T07:24:17.477Z,25.40
2018-08-06T07:26:47.671Z,26.00
2018-08-06T07:29:17.927Z,27.00
2018-08-06T07:31:48.244Z,26.17
2018-08-06T07:34:18.529Z,25.93
2018-08-06T07:36:48.336Z,26.21
2018-08-06T07:39:18.658Z,27.24
2018-08-06T07:41:48.961Z,25.77
2018-08-06T07:44:19.343Z,26.46
2018-08-06T07:46:49.551Z,27.47
2018-08-06T07:49:20.015Z,26.52
2018-08-06T07:51:50.242Z,26.26
2018-08-06T07:54:20.617Z,26.59
2018-08-06T07:56:50.846Z,28.93
2018-08-06T07:59:21.016Z,29.15
2018-08-06T08:01:51.212Z,27.70
2018-08-06T08:04:21.536Z,27.10
2018-08-06T08:06:51.712Z,27.50
2018-08-06T08:09:21.945Z,27.58
2018-08-06T08:11:52.453Z,26.28
2018-08-06T08:14:22.700Z,26.78
2018-08-06T08:16:52.873Z,26.32
2018-08-06T08:19:23.311Z,25.53
2018-08-06T08:21:53.520Z,25.19
2018-08-06T08:24:23.717Z,25.78
2018-08-06T08:26:53.883Z,25.37
2018-08-06T08:29:24.073Z,25.39
2018-08-06T08:31:54.233Z,25.30
2018-08-06T08:34:24.457Z,22.94
2018-08-06T08:36:54.655Z,24.51
2018-08-06T08:39:24.849Z,25.30
2018-08-06T08:41:55.107Z,23.91
2018-08-06T08:44:25.235Z,24.03
2018-08-06T08:46:55.364Z,22.74
2018-08-06T08:49:25.540Z,23.38
2018-08-06T08:51:55.733Z,22.75
2018-08-06T08:54:25.934Z,21.39
2018-08-06T08:56:56.110Z,21.21
2018-08-06T08:59:26.277Z,21.68
2018-08-06T09:01:56.432Z,22.45
2018-08-06T09:04:26.657Z,21.99
2018-08-06T09:06:56.821Z,22.50
2018-08-06T09:09:26.926Z,23.10
2018-08-06T09:11:57.157Z,22.84
2018-08-06T09:14:27.314Z,22.37
2018-08-06T09:16:57.477Z,21.72
2018-08-06T09:19:27.746Z,21.95
2018-08-06T09:21:57.847Z,21.88
2018-08-06T09:27:44.739Z,23.77
2018-08-06T09:30:18.260Z,23.77
2018-08-06T09:32:49.627Z,23.82
2018-08-06T09:35:20.396Z,23.27
2018-08-06T09:37:50.857Z,22.63
2018-08-06T09:40:22.157Z,22.43
2018-08-06T09:42:52.789Z,21.78
2018-08-06T09:45:23.530Z,22.59
2018-08-06T09:47:54.733Z,22.60
2018-08-06T09:50:24.946Z,23.65
2018-08-06T09:52:56.591Z,23.77
2018-08-06T09:55:28.548Z,22.65
2018-08-06T09:57:58.742Z,23.44
2018-08-06T10:00:33.982Z,24.82
2018-08-06T10:03:04.231Z,25.95
2018-08-06T10:05:34.480Z,26.32
2018-08-06T10:08:04.732Z,27.15
2018-08-06T10:10:34.943Z,26.96
2018-08-06T10:13:05.168Z,28.24
2018-08-06T10:15:35.387Z,28.17
2018-08-06T10:18:05.664Z,28.89
2018-08-06T10:20:35.879Z,28.07
2018-08-06T10:23:05.595Z,28.52
2018-08-06T10:25:35.842Z,27.86
2018-08-06T10:28:06.006Z,27.41
2018-08-06T10:30:36.207Z,27.12
2018-08-06T10:33:06.394Z,27.25
2018-08-06T10:35:36.551Z,27.71
2018-08-06T10:38:06.706Z,27.31
2018-08-06T10:40:36.899Z,27.29
2018-08-06T10:43:07.107Z,27.94
2018-08-06T10:45:37.217Z,27.33
2018-08-06T10:48:07.315Z,27.05
2018-08-06T10:50:37.485Z,27.21
2018-08-06T10:53:07.798Z,26.82
2018-08-06T10:55:37.992Z,26.65
2018-08-06T10:58:08.227Z,26.90
2018-08-06T11:00:38.394Z,27.39
2018-08-06T11:03:08.692Z,26.87
2018-08-06T11:05:38.956Z,27.15
2018-08-06T11:08:09.175Z,26.47
2018-08-06T11:10:39.434Z,26.55
2018-08-06T11:13:09.574Z,26.57
2018-08-06T11:15:39.711Z,27.30
2018-08-06T11:18:09.829Z,27.11
2018-08-06T11:20:39.914Z,26.39
2018-08-06T11:23:10.015Z,23.89
2018-08-06T11:25:40.253Z,23.57
2018-08-06T11:28:10.436Z,23.16
2018-08-06T11:30:40.541Z,22.08
2018-08-06T11:33:10.689Z,22.73
2018-08-06T11:35:40.977Z,22.49
2018-08-06T11:38:11.100Z,23.44
2018-08-06T11:40:41.255Z,23.15
2018-08-06T11:43:11.030Z,24.06
2018-08-06T11:45:41.173Z,24.10
2018-08-06T11:48:11.228Z,24.36
2018-08-06T11:50:41.373Z,24.52
2018-08-06T11:53:11.464Z,24.58
2018-08-06T11:55:41.762Z,23.23
2018-08-06T11:58:11.938Z,24.25
2018-08-06T12:00:45.153Z,23.46
2018-08-06T12:03:15.253Z,23.36
2018-08-06T12:05:45.364Z,23.17
2018-08-06T12:08:15.491Z,21.88
2018-08-06T12:10:45.668Z,21.66
2018-08-06T12:13:15.718Z,20.98
2018-08-06T12:15:45.945Z,20.88
2018-08-06T12:18:15.949Z,21.25
2018-08-06T12:20:46.071Z,21.47
2018-08-06T12:23:16.155Z,21.50
2018-08-06T12:25:46.331Z,20.88
2018-08-06T12:28:16.393Z,22.40
2018-08-06T12:30:46.592Z,21.92
2018-08-06T12:33:16.636Z,21.85
2018-08-06T12:35:46.870Z,23.72
2018-08-06T12:38:16.971Z,22.51
2018-08-06T12:40:47.095Z,23.84
2018-08-06T12:43:17.271Z,23.15
2018-08-06T12:45:47.405Z,21.66
2018-08-06T12:48:17.562Z,22.42
2018-08-06T12:50:47.707Z,22.07
2018-08-06T12:53:17.756Z,20.88
2018-08-06T12:55:47.991Z,20.96
2018-08-06T12:58:18.067Z,21.24
2018-08-06T13:00:48.195Z,21.20
2018-08-06T13:03:18.265Z,21.24
2018-08-06T13:05:48.404Z,20.54
2018-08-06T13:08:18.554Z,21.71
2018-08-06T13:10:48.734Z,21.35
2018-08-06T13:13:18.850Z,21.71
2018-08-06T13:15:48.997Z,20.90
2018-08-06T13:18:19.166Z,21.99
2018-08-06T13:20:49.309Z,22.27
2018-08-06T13:23:18.983Z,21.96
2018-08-06T13:25:49.068Z,20.70
2018-08-06T13:28:19.240Z,20.44
2018-08-06T13:30:49.382Z,21.21
2018-08-06T13:33:19.473Z,20.67
2018-08-06T13:35:49.573Z,20.08
2018-08-06T13:38:19.674Z,20.65
2018-08-06T13:40:49.834Z,20.00
2018-08-06T13:43:20.061Z,20.31
2018-08-06T13:45:50.218Z,20.17
2018-08-06T13:48:20.334Z,21.15
2018-08-06T13:50:50.430Z,20.04
2018-08-06T13:53:20.599Z,21.16
2018-08-06T13:55:50.723Z,19.86
2018-08-06T13:58:20.793Z,19.24
2018-08-06T14:00:50.993Z,19.48
2018-08-06T14:03:21.163Z,19.70
2018-08-06T14:05:51.333Z,20.27
2018-08-06T14:08:21.448Z,21.47
2018-08-06T14:10:51.590Z,20.59
2018-08-06T14:13:21.636Z,19.69
2018-08-06T14:15:51.843Z,20.16
2018-08-06T14:18:21.990Z,20.89
2018-08-06T14:20:52.121Z,21.41
2018-08-06T14:23:22.254Z,20.15
2018-08-06T14:25:52.397Z,19.53
2018-08-06T14:28:22.542Z,19.97
2018-08-06T14:30:52.703Z,20.44
2018-08-06T14:33:22.850Z,19.85
2018-08-06T14:35:52.924Z,19.57
2018-08-06T14:38:23.016Z,18.44
2018-08-06T14:40:53.183Z,17.48
2018-08-06T14:43:23.244Z,17.26
2018-08-06T14:45:53.350Z,15.78
2018-08-06T14:48:23.433Z,17.04
2018-08-06T14:50:53.621Z,16.94
2018-08-06T14:53:23.732Z,16.82
2018-08-06T14:55:53.899Z,17.01
2018-08-06T14:58:24.795Z,15.55
2018-08-06T15:00:55.078Z,15.33
2018-08-06T15:03:25.245Z,15.34
2018-08-06T15:05:55.419Z,14.62
2018-08-06T15:08:25.770Z,14.56
2018-08-06T15:10:56.096Z,14.74
2018-08-06T15:13:26.235Z,13.32
2018-08-06T15:15:56.418Z,13.70
2018-08-06T15:18:26.504Z,14.56
2018-08-06T15:20:56.639Z,14.50
2018-08-06T15:23:26.757Z,14.43
2018-08-06T15:25:57.007Z,14.17
2018-08-06T15:28:27.167Z,14.77
2018-08-06T15:30:57.368Z,14.21
2018-08-06T15:33:27.481Z,14.06
2018-08-06T15:35:57.669Z,13.87
2018-08-06T15:38:27.798Z,12.58
2018-08-06T15:40:57.993Z,13.01
2018-08-06T15:43:28.136Z,13.42
2018-08-06T15:45:58.268Z,13.75
2018-08-06T15:48:28.486Z,13.54
2018-08-06T15:50:58.680Z,12.81
2018-08-06T15:53:28.920Z,12.62
2018-08-06T15:55:59.148Z,12.20
2018-08-06T15:58:29.377Z,13.67
2018-08-06T16:00:59.539Z,12.83
2018-08-06T16:03:30.683Z,13.64
2018-08-06T16:06:01.094Z,13.10
2018-08-06T16:08:32.268Z,12.33
2018-08-06T16:11:02.511Z,12.71
2018-08-06T16:13:41.098Z,12.52
2018-08-06T16:16:11.340Z,12.40
2018-08-06T16:18:41.434Z,12.01
2018-08-06T16:21:11.698Z,12.91
2018-08-06T16:23:41.800Z,13.46
2018-08-06T16:26:11.916Z,13.43
2018-08-06T16:28:42.147Z,13.64
2018-08-06T16:31:12.360Z,14.45
2018-08-06T16:33:42.546Z,14.33
2018-08-06T16:36:12.703Z,13.98
2018-08-06T16:38:42.829Z,15.76
2018-08-06T16:41:13.041Z,17.11
2018-08-06T16:43:43.204Z,17.08
2018-08-06T16:46:13.426Z,17.62
2018-08-06T16:48:43.678Z,16.31
2018-08-06T16:51:13.780Z,16.57
2018-08-06T16:53:43.931Z,19.57
2018-08-06T16:56:14.115Z,18.68
2018-08-06T16:58:44.235Z,19.50
2018-08-06T17:01:14.376Z,19.72
2018-08-06T17:03:44.560Z,19.70
2018-08-06T17:06:14.740Z,19.91
2018-08-06T17:08:44.796Z,19.66
2018-08-06T17:11:15.024Z,20.13
2018-08-06T17:13:45.171Z,20.93
2018-08-06T17:16:15.357Z,20.11
2018-08-06T17:18:45.543Z,19.21
2018-08-06T17:21:15.742Z,20.07
2018-08-06T17:23:45.825Z,20.78
2018-08-06T17:26:15.980Z,20.29
2018-08-06T17:28:46.102Z,23.56
2018-08-06T17:31:16.423Z,19.77
2018-08-06T17:33:46.564Z,20.18
2018-08-06T17:36:16.795Z,19.95
2018-08-06T17:38:46.929Z,23.81
2018-08-06T17:41:17.077Z,24.76
2018-08-06T17:43:47.194Z,22.44
2018-08-06T17:46:17.379Z,25.74
2018-08-06T17:48:47.839Z,24.44
2018-08-06T17:51:17.926Z,24.53
2018-08-06T17:53:48.008Z,24.08
2018-08-06T17:56:18.148Z,21.79
2018-08-06T17:58:48.296Z,22.23
2018-08-06T18:01:18.473Z,22.13
2018-08-06T18:03:48.561Z,21.87
2018-08-06T18:06:18.724Z,21.77
2018-08-06T18:08:49.016Z,21.85
2018-08-06T18:11:19.086Z,22.75
2018-08-06T18:13:49.164Z,23.27
2018-08-06T18:16:19.393Z,26.10
2018-08-06T18:18:49.544Z,26.48
2018-08-06T18:21:19.707Z,26.48
2018-08-06T18:23:49.747Z,26.46
2018-08-06T18:26:19.977Z,26.30
2018-08-06T18:28:50.120Z,27.55
2018-08-06T18:31:20.327Z,28.82
2018-08-06T18:33:50.555Z,28.52
2018-08-06T18:36:20.735Z,27.44
2018-08-06T18:38:51.890Z,28.61
2018-08-06T18:41:22.085Z,29.06
2018-08-06T18:43:52.217Z,28.42
2018-08-06T18:46:22.436Z,28.99
2018-08-06T18:48:52.566Z,28.94
2018-08-06T18:51:22.760Z,29.45
2018-08-06T18:53:52.874Z,29.14
2018-08-06T18:56:23.039Z,30.98
2018-08-06T18:58:53.204Z,30.51
2018-08-06T19:01:23.372Z,31.07
2018-08-06T19:03:53.756Z,32.61
2018-08-06T19:06:23.917Z,32.99
2018-08-06T19:08:53.969Z,32.38
2018-08-06T19:11:24.137Z,31.83
2018-08-06T19:13:59.238Z,32.22
2018-08-06T19:16:29.468Z,32.43
2018-08-06T19:19:04.554Z,32.79
2018-08-06T19:21:34.678Z,33.09
2018-08-06T19:24:09.804Z,33.58
2018-08-06T19:26:39.951Z,34.22
2018-08-06T19:29:09.990Z,34.09
2018-08-06T19:31:40.131Z,35.09
2018-08-06T19:34:10.267Z,34.56
2018-08-06T19:36:45.415Z,35.28
2018-08-06T19:39:15.620Z,33.96
2018-08-06T19:41:45.741Z,34.04
2018-08-06T19:44:15.916Z,34.70
2018-08-06T19:46:46.141Z,35.26
2018-08-06T19:50:23.323Z,35.98
2018-08-06T19:52:53.513Z,35.90
2018-08-06T19:55:28.923Z,34.87
2018-08-06T19:57:59.103Z,35.26
2018-08-06T20:00:29.468Z,34.31
2018-08-06T20:02:59.697Z,35.76
2018-08-06T20:05:29.869Z,35.17
2018-08-06T20:08:00.075Z,34.05
2018-08-06T20:10:30.742Z,33.09
2018-08-06T20:13:00.897Z,33.81
2018-08-06T20:15:31.037Z,34.84
2018-08-06T20:18:01.246Z,33.95
2018-08-06T20:20:31.411Z,34.67
2018-08-06T20:23:01.704Z,32.88
2018-08-06T20:25:31.834Z,33.59
2018-08-06T20:28:02.046Z,33.62
2018-08-06T20:30:32.247Z,34.24
2018-08-06T20:33:02.478Z,32.95
2018-08-06T20:35:32.626Z,31.52
2018-08-06T20:38:02.865Z,31.73
2018-08-06T20:40:33.016Z,30.70
2018-08-06T20:43:03.154Z,32.06
2018-08-06T20:45:33.350Z,32.20
2018-08-06T20:48:03.688Z,32.84
2018-08-06T20:50:33.821Z,33.41
2018-08-06T20:53:03.995Z,33.55
2018-08-06T20:55:34.119Z,32.87
2018-08-06T20:58:04.341Z,35.20
2018-08-06T21:00:34.515Z,35.81
2018-08-06T21:03:04.800Z,36.48
2018-08-06T21:05:34.998Z,36.27
2018-08-06T21:08:05.207Z,35.15
2018-08-06T21:10:35.474Z,35.68
2018-08-06T21:13:05.660Z,36.26
2018-08-06T21:15:35.849Z,36.39
2018-08-06T21:18:06.182Z,37.17
2018-08-06T21:20:36.279Z,36.56
2018-08-06T21:23:06.466Z,35.97
2018-08-06T21:25:36.591Z,36.43
2018-08-06T21:28:06.823Z,36.23
2018-08-06T21:30:36.899Z,37.56
2018-08-06T21:33:07.041Z,37.56
2018-08-06T21:35:37.254Z,36.62
2018-08-06T21:38:07.628Z,38.02
2018-08-06T21:40:37.837Z,37.99
2018-08-06T21:43:08.479Z,38.40
2018-08-06T21:45:38.692Z,39.47
2018-08-06T21:48:08.958Z,38.88
2018-08-06T21:50:39.136Z,37.25
2018-08-06T21:53:09.562Z,36.74
2018-08-06T21:55:39.895Z,38.72
2018-08-06T21:58:10.116Z,37.07
2018-08-06T22:00:41.334Z,36.12
2018-08-06T22:03:18.833Z,36.80
2018-08-06T22:05:48.993Z,37.77
2018-08-06T22:08:19.113Z,38.97
2018-08-06T22:10:49.231Z,40.35
2018-08-06T22:13:19.438Z,40.92
2018-08-06T22:15:49.653Z,41.36
2018-08-06T22:18:19.883Z,41.58
2018-08-06T22:20:50.076Z,42.44
2018-08-06T22:23:20.281Z,42.58
2018-08-06T22:25:50.452Z,43.50
2018-08-06T22:28:20.620Z,43.76
2018-08-06T22:30:50.741Z,44.21
2018-08-06T22:33:20.903Z,45.12
2018-08-06T22:35:51.201Z,45.74
2018-08-06T22:38:22.189Z,46.18
2018-08-06T22:40:52.380Z,45.23
2018-08-06T22:43:22.667Z,45.42
2018-08-06T22:45:52.803Z,45.60
2018-08-06T22:48:23.055Z,46.18
2018-08-06T22:50:53.235Z,46.21
2018-08-06T22:53:23.373Z,47.62
2018-08-06T22:56:04.465Z,48.21
2018-08-06T22:58:34.570Z,49.50
2018-08-06T23:01:04.852Z,48.29
2018-08-06T23:03:35.103Z,48.14
2018-08-06T23:06:05.425Z,48.94
2018-08-06T23:08:35.647Z,48.48
2018-08-06T23:11:05.824Z,49.13
2018-08-06T23:13:36.107Z,48.46
2018-08-06T23:16:06.438Z,49.07
2018-08-06T23:18:36.602Z,49.18
2018-08-06T23:21:06.861Z,47.86
2018-08-06T23:23:37.069Z,48.25
2018-08-06T23:26:07.287Z,48.69
2018-08-06T23:28:37.434Z,47.44
2018-08-06T23:31:07.766Z,48.27
2018-08-06T23:33:37.858Z,47.95
2018-08-06T23:36:08.021Z,48.72
2018-08-06T23:38:38.219Z,50.54
2018-08-06T23:41:08.429Z,50.30
2018-08-06T23:43:38.662Z,50.18
2018-08-06T23:46:08.757Z,50.56
2018-08-06T23:48:38.963Z,49.91
2018-08-06T23:51:09.799Z,49.25
2018-08-06T23:53:39.979Z,50.44
2018-08-06T23:56:10.194Z,50.29
2018-08-06T23:58:40.281Z,49.72
